Time;durP1;ratioP1;P1;durP2;ratioP2;P2;SDS_P1;SDS_P2;PMS_P1;PMS_P2;Temp;Humidity;BMP_temperature;BMP_pressure;BME280_temperature;BME280_humidity;BME280_pressure;Samples;Min_cycle;Max_cycle;Signal;HPM_P1;HPM_P2
2024/02/11 00:01:45;;;;;;;;;;;384.80;1766.40;;;;;;5019553;28;20289;-83
2024/02/11 00:04:11;;;;;;;;;;;384.70;1792.00;;;;;;5006348;28;19996;-83
2024/02/11 00:06:36;;;;;;;;;;;384.60;1792.00;;;;;;5015751;28;20274;-78
2024/02/11 00:09:03;;;;;;;;;;;384.50;1843.20;;;;;;5011862;28;19909;-79
2024/02/11 00:11:29;;;;;;;;;;;384.40;1868.80;;;;;;5032103;28;19910;-78
2024/02/11 00:13:55;;;;;;;;;;;384.30;1868.80;;;;;;5025162;28;19928;-80
2024/02/11 00:16:21;;;;;;;;;;;384.30;1894.40;;;;;;5001394;28;19905;-82
2024/02/11 00:18:48;;;;;;;;;;;384.30;1868.80;;;;;;5002108;28;19921;-77
2024/02/11 00:21:14;;;;;;;;;;;384.30;1843.20;;;;;;5025034;28;19925;-78
2024/02/11 00:23:42;;;;;;;;;;;384.30;1868.80;;;;;;5012039;28;19916;-83
2024/02/11 00:26:07;;;;;;;;;;;384.30;1894.40;;;;;;5022656;28;19913;-82
2024/02/11 00:28:33;;;;;;;;;;;384.20;1945.60;;;;;;5023056;28;19912;-83
2024/02/11 00:31:03;;;;;;;;;;;384.10;2022.40;;;;;;5022064;28;19912;-76
2024/02/11 00:33:29;;;;;;;;;;;359.30;2099.20;;;;;;5005564;28;20373;-84
2024/02/11 00:35:59;;;;;;;;;;;359.20;2150.40;;;;;;5025669;28;19963;-77
2024/02/11 00:38:25;;;;;;;;;;;359.00;2278.40;;;;;;5018108;28;19963;-78
2024/02/11 00:40:51;;;;;;;;;;;359.10;2329.60;;;;;;5015140;28;19913;-78
2024/02/11 00:43:16;;;;;;;;;;;358.80;2329.60;;;;;;5008899;28;19913;-79
2024/02/11 00:45:42;;;;;;;;;;;358.80;2329.60;;;;;;5026271;28;19909;-82
2024/02/11 00:48:10;;;;;;;;;;;358.60;2329.60;;;;;;5004123;28;20263;-78
2024/02/11 00:50:36;;;;;;;;;;;358.60;2329.60;;;;;;5008599;28;19909;-76
2024/02/11 00:53:04;;;;;;;;;;;358.50;2329.60;;;;;;5008052;28;19937;-77
2024/02/11 00:55:30;;;;;;;;;;;358.40;2329.60;;;;;;5018820;28;19910;-78
2024/02/11 00:57:56;;;;;;;;;;;358.50;2329.60;;;;;;5023812;28;19905;-78
2024/02/11 01:00:22;;;;;;;;;;;358.40;2329.60;;;;;;5008080;28;19923;-77
2024/02/11 01:02:48;;;;;;;;;;;358.50;2329.60;;;;;;5001895;28;19982;-78
2024/02/11 01:05:14;;;;;;;;;;;358.50;2329.60;;;;;;5006515;28;19915;-77
2024/02/11 01:07:40;;;;;;;;;;;358.40;2329.60;;;;;;5022150;28;19909;-84
2024/02/11 01:10:12;;;;;;;;;;;358.40;2329.60;;;;;;5006081;28;19905;-76
2024/02/11 01:12:41;;;;;;;;;;;358.40;2329.60;;;;;;5022585;28;19916;-77
2024/02/11 01:15:08;;;;;;;;;;;358.50;2329.60;;;;;;5026586;28;19963;-76
2024/02/11 01:17:34;;;;;;;;;;;358.40;2329.60;;;;;;5006218;28;19910;-85
2024/02/11 01:19:59;;;;;;;;;;;358.50;2329.60;;;;;;5032003;28;20374;-77
2024/02/11 01:22:25;;;;;;;;;;;358.50;2329.60;;;;;;5025112;28;19957;-77
2024/02/11 01:24:51;;;;;;;;;;;358.50;2329.60;;;;;;5024647;28;19915;-77
2024/02/11 01:27:16;;;;;;;;;;;358.60;2329.60;;;;;;5004976;28;20012;-78
2024/02/11 01:29:42;;;;;;;;;;;358.60;2329.60;;;;;;5027531;28;19913;-77
2024/02/11 01:32:09;;;;;;;;;;;358.70;2329.60;;;;;;5005324;28;19909;-77
2024/02/11 01:34:34;;;;;;;;;;;358.70;2329.60;;;;;;5030723;28;19940;-76
2024/02/11 01:37:00;;;;;;;;;;;358.80;2329.60;;;;;;5006968;28;19944;-77
2024/02/11 01:39:26;;;;;;;;;;;358.80;2329.60;;;;;;5033226;28;19920;-77
2024/02/11 01:41:51;;;;;;;;;;;358.80;2329.60;;;;;;5016007;28;19905;-78
2024/02/11 01:44:17;;;;;;;;;;;358.90;2329.60;;;;;;5029522;28;19914;-77
2024/02/11 01:46:43;;;;;;;;;;;358.80;2329.60;;;;;;4995962;28;19931;-77
2024/02/11 01:49:11;;;;;;;;;;;358.80;2329.60;;;;;;4996135;28;19909;-77
2024/02/11 01:51:43;;;;;;;;;;;358.80;2329.60;;;;;;5013748;28;19992;-80
2024/02/11 01:54:12;;;;;;;;;;;358.80;2329.60;;;;;;4996301;28;19912;-77
2024/02/11 01:56:38;;;;;;;;;;;358.80;2329.60;;;;;;5013821;28;19984;-77
2024/02/11 01:59:04;;;;;;;;;;;358.80;2304.00;;;;;;5013722;28;19919;-77
2024/02/11 02:01:31;;;;;;;;;;;358.80;2304.00;;;;;;5012402;28;19992;-77
2024/02/11 02:03:57;;;;;;;;;;;358.90;2278.40;;;;;;5013783;28;19952;-77
2024/02/11 02:06:23;;;;;;;;;;;358.90;2278.40;;;;;;5012525;28;19988;-77
2024/02/11 02:08:49;;;;;;;;;;;358.80;2278.40;;;;;;5013682;28;19944;-76
2024/02/11 02:11:14;;;;;;;;;;;358.90;2252.80;;;;;;5013953;28;19906;-77
2024/02/11 02:13:40;;;;;;;;;;;358.90;2252.80;;;;;;5014100;28;19912;-76
2024/02/11 02:16:08;;;;;;;;;;;358.90;2252.80;;;;;;5017456;28;19951;-76
2024/02/11 02:18:34;;;;;;;;;;;358.90;2227.20;;;;;;5016631;28;19917;-77
2024/02/11 02:21:02;;;;;;;;;;;358.90;2176.00;;;;;;5017375;28;19939;-77
2024/02/11 02:23:28;;;;;;;;;;;359.00;2176.00;;;;;;5016398;28;20259;-77
2024/02/11 02:25:55;;;;;;;;;;;359.00;2176.00;;;;;;5017541;28;19905;-77
2024/02/11 02:28:20;;;;;;;;;;;359.10;2150.40;;;;;;5016170;28;19905;-77
2024/02/11 02:30:46;;;;;;;;;;;359.20;2124.80;;;;;;5016367;28;20287;-76
2024/02/11 02:33:12;;;;;;;;;;;359.20;2124.80;;;;;;5017130;28;20366;-78
2024/02/11 02:35:37;;;;;;;;;;;359.30;2073.60;;;;;;5016126;28;19912;-76
2024/02/11 02:38:03;;;;;;;;;;;384.00;2099.20;;;;;;5017123;28;20001;-77
2024/02/11 02:40:29;;;;;;;;;;;384.00;2048.00;;;;;;5017274;28;20309;-77
2024/02/11 02:42:57;;;;;;;;;;;384.10;2048.00;;;;;;5017316;28;19905;-77
2024/02/11 02:45:22;;;;;;;;;;;384.20;2048.00;;;;;;5017243;28;19906;-77
2024/02/11 02:47:48;;;;;;;;;;;384.20;2022.40;;;;;;5016919;28;20274;-77
2024/02/11 02:50:16;;;;;;;;;;;384.20;2022.40;;;;;;5015785;28;19914;-77
2024/02/11 02:52:43;;;;;;;;;;;384.20;2022.40;;;;;;4999518;28;19910;-77
2024/02/11 02:55:09;;;;;;;;;;;384.20;2022.40;;;;;;5015909;28;20456;-77
2024/02/11 02:57:35;;;;;;;;;;;384.20;2022.40;;;;;;5015562;28;20000;-77
2024/02/11 03:00:03;;;;;;;;;;;384.20;1996.80;;;;;;5015341;28;19971;-79
2024/02/11 03:02:28;;;;;;;;;;;384.30;1996.80;;;;;;5016717;28;19949;-77
2024/02/11 03:04:56;;;;;;;;;;;384.30;1996.80;;;;;;5015533;28;20016;-77
2024/02/11 03:07:22;;;;;;;;;;;384.30;1996.80;;;;;;5015608;28;19905;-77
2024/02/11 03:09:48;;;;;;;;;;;384.30;1996.80;;;;;;5015397;28;19906;-76
2024/02/11 03:12:13;;;;;;;;;;;384.40;1971.20;;;;;;5016519;28;19905;-77
2024/02/11 03:14:39;;;;;;;;;;;384.40;1971.20;;;;;;4998704;28;19913;-77
2024/02/11 03:17:04;;;;;;;;;;;384.50;1945.60;;;;;;5015142;28;19905;-76
2024/02/11 03:19:30;;;;;;;;;;;384.50;1971.20;;;;;;5014928;28;19960;-77
2024/02/11 03:21:56;;;;;;;;;;;384.50;1971.20;;;;;;5015395;28;20299;-77
2024/02/11 03:24:22;;;;;;;;;;;384.60;1945.60;;;;;;5016196;28;20017;-76
2024/02/11 03:26:47;;;;;;;;;;;384.70;1920.00;;;;;;5015692;28;19917;-78
2024/02/11 03:29:13;;;;;;;;;;;384.70;1920.00;;;;;;5015121;28;19975;-77
2024/02/11 03:31:39;;;;;;;;;;;384.70;1945.60;;;;;;4998775;28;19959;-77
2024/02/11 03:34:05;;;;;;;;;;;384.60;1945.60;;;;;;5014931;28;19905;-77
2024/02/11 03:36:30;;;;;;;;;;;384.60;1945.60;;;;;;5014794;28;19905;-77
2024/02/11 03:38:56;;;;;;;;;;;384.60;1945.60;;;;;;5015992;28;19921;-82
2024/02/11 03:41:22;;;;;;;;;;;384.60;1945.60;;;;;;5016251;28;19905;-77
2024/02/11 03:43:49;;;;;;;;;;;384.50;1971.20;;;;;;5016059;28;19944;-78
2024/02/11 03:46:14;;;;;;;;;;;384.50;1971.20;;;;;;5015957;28;19910;-77
2024/02/11 03:48:43;;;;;;;;;;;384.50;1996.80;;;;;;5015724;28;19931;-77
2024/02/11 03:51:09;;;;;;;;;;;384.40;1996.80;;;;;;5014732;28;19913;-77
2024/02/11 03:53:34;;;;;;;;;;;384.40;1996.80;;;;;;5015882;28;19929;-77
2024/02/11 03:56:04;;;;;;;;;;;384.50;1971.20;;;;;;5015921;28;19948;-78
2024/02/11 03:58:32;;;;;;;;;;;384.60;1945.60;;;;;;5014492;28;19917;-77
2024/02/11 04:00:57;;;;;;;;;;;384.60;1971.20;;;;;;5005193;28;20418;-78
2024/02/11 04:03:23;;;;;;;;;;;384.60;1971.20;;;;;;5017703;28;19947;-79
2024/02/11 04:05:49;;;;;;;;;;;384.60;1971.20;;;;;;5035290;28;19905;-77
2024/02/11 04:08:15;;;;;;;;;;;384.60;1971.20;;;;;;5035307;28;19905;-77
2024/02/11 04:10:41;;;;;;;;;;;384.50;1971.20;;;;;;5035421;28;19947;-77
2024/02/11 04:13:09;;;;;;;;;;;384.50;1971.20;;;;;;5035307;28;20277;-77
2024/02/11 04:15:37;;;;;;;;;;;384.50;1971.20;;;;;;5035049;28;20414;-77
2024/02/11 04:18:10;;;;;;;;;;;384.50;1971.20;;;;;;5034633;28;20271;-77
2024/02/11 04:20:36;;;;;;;;;;;384.50;1971.20;;;;;;5035106;28;20047;-77
2024/02/11 04:23:03;;;;;;;;;;;384.60;1945.60;;;;;;5017407;28;19948;-77
2024/02/11 04:25:30;;;;;;;;;;;384.70;1920.00;;;;;;5017145;28;19944;-77
2024/02/11 04:27:56;;;;;;;;;;;384.70;1920.00;;;;;;5034816;28;20293;-76
2024/02/11 04:30:22;;;;;;;;;;;409.60;1894.40;;;;;;5017218;28;19996;-77
2024/02/11 04:32:48;;;;;;;;;;;409.60;1894.40;;;;;;5017033;28;19909;-77
2024/02/11 04:35:17;;;;;;;;;;;409.70;1894.40;;;;;;5034980;28;19959;-77
2024/02/11 04:37:49;;;;;;;;;;;409.70;1894.40;;;;;;5033598;28;19909;-77
2024/02/11 04:40:18;;;;;;;;;;;409.70;1868.80;;;;;;5016911;28;20287;-77
2024/02/11 04:42:45;;;;;;;;;;;409.80;1868.80;;;;;;5016802;28;19951;-77
2024/02/11 04:45:15;;;;;;;;;;;409.90;1868.80;;;;;;5034606;28;19936;-77
2024/02/11 04:47:45;;;;;;;;;;;409.90;1843.20;;;;;;5034061;28;19905;-77
2024/02/11 04:50:11;;;;;;;;;;;409.90;1843.20;;;;;;5034318;28;19916;-76
2024/02/11 04:52:39;;;;;;;;;;;409.80;1868.80;;;;;;5034423;28;19913;-77
2024/02/11 04:55:06;;;;;;;;;;;409.80;1868.80;;;;;;5016772;28;19928;-77
2024/02/11 04:57:38;;;;;;;;;;;409.90;1843.20;;;;;;5016749;28;20329;-77
2024/02/11 05:00:10;;;;;;;;;;;409.80;1843.20;;;;;;5015063;28;20267;-77
2024/02/11 05:02:43;;;;;;;;;;;409.90;1843.20;;;;;;5006113;28;19912;-77
2024/02/11 05:05:10;;;;;;;;;;;409.90;1843.20;;;;;;5016474;28;19905;-78
2024/02/11 05:07:37;;;;;;;;;;;409.90;1843.20;;;;;;5016496;28;20310;-77
2024/02/11 05:10:05;;;;;;;;;;;410.00;1843.20;;;;;;5016306;28;19905;-77
2024/02/11 05:12:31;;;;;;;;;;;410.00;1817.60;;;;;;5034255;28;19912;-77
2024/02/11 05:14:56;;;;;;;;;;;409.90;1868.80;;;;;;5034002;28;19909;-77
2024/02/11 05:17:22;;;;;;;;;;;409.90;1843.20;;;;;;5016602;28;20381;-77
2024/02/11 05:19:48;;;;;;;;;;;409.90;1868.80;;;;;;5029510;28;19917;-76
2024/02/11 05:22:13;;;;;;;;;;;409.90;1868.80;;;;;;5014962;28;20413;-77
2024/02/11 05:24:40;;;;;;;;;;;409.90;1868.80;;;;;;5013905;28;19928;-77
2024/02/11 05:27:05;;;;;;;;;;;409.80;1868.80;;;;;;5014207;28;19905;-77
2024/02/11 05:29:32;;;;;;;;;;;409.80;1868.80;;;;;;5014109;28;19951;-77
2024/02/11 05:31:59;;;;;;;;;;;409.80;1868.80;;;;;;4996440;28;19948;-76
2024/02/11 05:34:24;;;;;;;;;;;409.90;1843.20;;;;;;5019584;28;19909;-76
2024/02/11 05:36:51;;;;;;;;;;;409.90;1843.20;;;;;;5009952;28;19932;-77
2024/02/11 05:39:19;;;;;;;;;;;409.90;1843.20;;;;;;5022901;28;20574;-77
2024/02/11 05:41:45;;;;;;;;;;;409.90;1843.20;;;;;;5004508;28;19951;-77
2024/02/11 05:44:11;;;;;;;;;;;409.80;1868.80;;;;;;5005630;28;19937;-76
2024/02/11 05:46:37;;;;;;;;;;;409.90;1843.20;;;;;;4989787;28;19910;-82
2024/02/11 05:49:05;;;;;;;;;;;409.80;1843.20;;;;;;4985008;28;19909;-77
2024/02/11 05:51:31;;;;;;;;;;;409.90;1843.20;;;;;;5007353;28;19961;-77
2024/02/11 05:53:56;;;;;;;;;;;410.00;1843.20;;;;;;4988930;28;20378;-77
2024/02/11 05:56:22;;;;;;;;;;;410.00;1817.60;;;;;;4987792;28;19932;-77
2024/02/11 05:58:49;;;;;;;;;;;410.00;1843.20;;;;;;4998424;28;20011;-77
2024/02/11 06:01:14;;;;;;;;;;;410.00;1817.60;;;;;;5003127;28;19917;-77
2024/02/11 06:03:40;;;;;;;;;;;410.00;1843.20;;;;;;4996427;28;19906;-76
2024/02/11 06:06:07;;;;;;;;;;;410.00;1843.20;;;;;;4985620;28;20395;-76
2024/02/11 06:08:33;;;;;;;;;;;409.90;1843.20;;;;;;4986882;28;19917;-75
2024/02/11 06:10:59;;;;;;;;;;;409.90;1843.20;;;;;;5004933;28;20426;-76
2024/02/11 06:13:26;;;;;;;;;;;410.00;1843.20;;;;;;5003318;28;19995;-76
2024/02/11 06:15:52;;;;;;;;;;;409.90;1868.80;;;;;;5007234;28;20297;-77
2024/02/11 06:18:17;;;;;;;;;;;409.90;1868.80;;;;;;5005211;28;19910;-76
2024/02/11 06:20:43;;;;;;;;;;;410.00;1843.20;;;;;;5018654;28;19964;-76
2024/02/11 06:23:10;;;;;;;;;;;410.00;1843.20;;;;;;5020269;28;20008;-76
2024/02/11 06:25:36;;;;;;;;;;;410.00;1843.20;;;;;;5006903;28;20326;-76
2024/02/11 06:28:02;;;;;;;;;;;410.00;1843.20;;;;;;5028941;28;19948;-76
2024/02/11 06:30:28;;;;;;;;;;;410.00;1843.20;;;;;;5004487;28;20315;-76
2024/02/11 06:32:54;;;;;;;;;;;410.00;1843.20;;;;;;5025529;28;19963;-77
2024/02/11 06:35:20;;;;;;;;;;;410.00;1843.20;;;;;;5019301;28;19909;-77
2024/02/11 06:37:46;;;;;;;;;;;410.10;1817.60;;;;;;5028273;28;19967;-79
2024/02/11 06:40:16;;;;;;;;;;;410.10;1817.60;;;;;;5008707;28;19923;-81
2024/02/11 06:42:43;;;;;;;;;;;410.20;1817.60;;;;;;5026072;28;20000;-79
2024/02/11 06:45:09;;;;;;;;;;;410.20;1817.60;;;;;;5006862;28;19909;-80
2024/02/11 06:47:36;;;;;;;;;;;410.20;1817.60;;;;;;5011001;28;19963;-79
2024/02/11 06:50:05;;;;;;;;;;;410.20;1817.60;;;;;;5025722;28;19909;-79
2024/02/11 06:52:31;;;;;;;;;;;410.20;1817.60;;;;;;5000192;28;20347;-81
2024/02/11 06:54:56;;;;;;;;;;;410.20;1792.00;;;;;;5011532;28;19917;-80
2024/02/11 06:57:22;;;;;;;;;;;410.30;1817.60;;;;;;5020382;28;20371;-81
2024/02/11 06:59:48;;;;;;;;;;;410.30;1843.20;;;;;;5013326;28;20406;-77
2024/02/11 07:02:14;;;;;;;;;;;410.30;1843.20;;;;;;5004936;28;20363;-81
2024/02/11 07:04:41;;;;;;;;;;;410.30;1817.60;;;;;;5015074;28;20362;-81
2024/02/11 07:07:08;;;;;;;;;;;410.40;1817.60;;;;;;5008496;28;19913;-81
2024/02/11 07:09:34;;;;;;;;;;;410.40;1817.60;;;;;;5005191;28;19992;-78
2024/02/11 07:12:00;;;;;;;;;;;410.40;1792.00;;;;;;5008017;28;19945;-82
2024/02/11 07:14:26;;;;;;;;;;;410.50;1792.00;;;;;;5028718;28;19905;-79
2024/02/11 07:16:53;;;;;;;;;;;410.50;1792.00;;;;;;5011994;28;20370;-78
2024/02/11 07:19:19;;;;;;;;;;;410.50;1792.00;;;;;;5019981;28;19918;-78
2024/02/11 07:21:45;;;;;;;;;;;435.20;1792.00;;;;;;5025740;28;19931;-80
2024/02/11 07:24:11;;;;;;;;;;;435.20;1766.40;;;;;;5005019;28;19916;-77
2024/02/11 07:26:36;;;;;;;;;;;435.30;1766.40;;;;;;5014176;28;19909;-79
2024/02/11 07:29:03;;;;;;;;;;;435.20;1766.40;;;;;;5011156;28;20279;-78
2024/02/11 07:31:29;;;;;;;;;;;435.50;1740.80;;;;;;5022594;28;20278;-78
2024/02/11 07:33:55;;;;;;;;;;;435.50;1766.40;;;;;;5007674;28;19910;-83
2024/02/11 07:36:22;;;;;;;;;;;435.50;1766.40;;;;;;5032668;28;19909;-81
2024/02/11 07:38:51;;;;;;;;;;;435.60;1766.40;;;;;;5029137;28;20371;-81
2024/02/11 07:41:20;;;;;;;;;;;435.60;1766.40;;;;;;5011200;28;19913;-79
2024/02/11 07:43:53;;;;;;;;;;;435.60;1766.40;;;;;;5028376;28;19913;-82
2024/02/11 07:46:19;;;;;;;;;;;435.70;1740.80;;;;;;5010158;28;19936;-80
2024/02/11 07:48:45;;;;;;;;;;;435.80;1715.20;;;;;;5024687;28;19991;-79
2024/02/11 07:51:14;;;;;;;;;;;435.80;1740.80;;;;;;5011085;28;20351;-80
2024/02/11 07:53:40;;;;;;;;;;;435.90;1740.80;;;;;;5026204;28;19905;-80
2024/02/11 07:56:13;;;;;;;;;;;435.90;1715.20;;;;;;5035375;28;20014;-79
2024/02/11 07:58:39;;;;;;;;;;;435.90;1715.20;;;;;;5029751;28;20248;-81
2024/02/11 08:01:05;;;;;;;;;;;435.90;1715.20;;;;;;5010265;28;20000;-83
2024/02/11 08:03:31;;;;;;;;;;;435.90;1715.20;;;;;;5007027;28;19944;-82
2024/02/11 08:05:58;;;;;;;;;;;436.00;1715.20;;;;;;5011027;28;20285;-82
2024/02/11 08:08:23;;;;;;;;;;;436.10;1715.20;;;;;;5007785;28;19992;-84
2024/02/11 08:10:49;;;;;;;;;;;436.10;1740.80;;;;;;5015259;28;19905;-84
2024/02/11 08:13:14;;;;;;;;;;;436.10;1715.20;;;;;;5008624;28;19909;-83
2024/02/11 08:15:40;;;;;;;;;;;436.10;1740.80;;;;;;5023493;28;19932;-83
2024/02/11 08:18:08;;;;;;;;;;;460.80;1766.40;;;;;;5009615;28;19909;-83
2024/02/11 08:20:33;;;;;;;;;;;460.80;1715.20;;;;;;5007733;28;19964;-83
2024/02/11 08:22:59;;;;;;;;;;;460.90;1740.80;;;;;;5002821;28;19959;-82
2024/02/11 08:25:25;;;;;;;;;;;460.90;1740.80;;;;;;5007160;28;19923;-81
2024/02/11 08:27:51;;;;;;;;;;;461.00;1715.20;;;;;;5003289;28;19973;-79
2024/02/11 08:30:16;;;;;;;;;;;461.00;1740.80;;;;;;5013581;28;19959;-81
2024/02/11 08:32:42;;;;;;;;;;;461.00;1715.20;;;;;;5007467;28;20004;-81
2024/02/11 08:35:08;;;;;;;;;;;461.10;1715.20;;;;;;5008094;28;19917;-81
2024/02/11 08:37:34;;;;;;;;;;;461.10;1715.20;;;;;;5009614;28;20384;-82
2024/02/11 08:40:00;;;;;;;;;;;461.00;1740.80;;;;;;5000627;28;19968;-82
2024/02/11 08:42:27;;;;;;;;;;;461.10;1740.80;;;;;;5003605;28;20286;-82
2024/02/11 08:44:54;;;;;;;;;;;461.10;1740.80;;;;;;5015055;28;19905;-82
2024/02/11 08:47:20;;;;;;;;;;;461.10;1740.80;;;;;;5005960;28;19909;-84
2024/02/11 08:49:46;;;;;;;;;;;461.10;1740.80;;;;;;5026929;28;19913;-85
2024/02/11 08:52:12;;;;;;;;;;;461.20;1740.80;;;;;;5009015;28;19920;-82
2024/02/11 08:54:38;;;;;;;;;;;461.20;1740.80;;;;;;5013912;28;19924;-82
2024/02/11 08:57:04;;;;;;;;;;;461.30;1715.20;;;;;;5008108;28;19944;-80
2024/02/11 08:59:30;;;;;;;;;;;461.40;1715.20;;;;;;5000176;28;19916;-78
2024/02/11 09:01:56;;;;;;;;;;;461.60;1715.20;;;;;;5016571;28;20647;-80
2024/02/11 09:04:23;;;;;;;;;;;461.50;1689.60;;;;;;5024440;28;19906;-79
2024/02/11 09:06:56;;;;;;;;;;;461.60;1689.60;;;;;;4998925;28;19905;-81
2024/02/11 09:09:27;;;;;;;;;;;461.70;1689.60;;;;;;5005351;28;20000;-83
2024/02/11 09:11:57;;;;;;;;;;;461.70;1689.60;;;;;;5026752;28;19909;-82
2024/02/11 09:14:27;;;;;;;;;;;461.70;1689.60;;;;;;4997341;28;19909;-81
2024/02/11 09:16:53;;;;;;;;;;;461.70;1715.20;;;;;;5012192;28;19916;-78
2024/02/11 09:19:18;;;;;;;;;;;486.40;1689.60;;;;;;5002980;28;20295;-79
2024/02/11 09:21:44;;;;;;;;;;;486.50;1664.00;;;;;;5026683;28;19943;-78
2024/02/11 09:24:10;;;;;;;;;;;486.60;1664.00;;;;;;5019616;28;19913;-81
2024/02/11 09:26:36;;;;;;;;;;;486.60;1638.40;;;;;;5011703;28;20000;-80
2024/02/11 09:29:01;;;;;;;;;;;486.70;1638.40;;;;;;5020767;28;19959;-83
2024/02/11 09:31:27;;;;;;;;;;;486.70;1612.80;;;;;;5007158;28;20332;-79
2024/02/11 09:33:52;;;;;;;;;;;486.80;1612.80;;;;;;5008661;28;20406;-80
2024/02/11 09:36:18;;;;;;;;;;;487.10;1587.20;;;;;;5013945;28;19978;-83
2024/02/11 09:38:44;;;;;;;;;;;512.00;1587.20;;;;;;5016856;28;20016;-83
2024/02/11 09:41:09;;;;;;;;;;;512.20;1536.00;;;;;;5009682;28;19909;-90
2024/02/11 09:43:37;;;;;;;;;;;512.50;1510.40;;;;;;5006648;28;20359;-84
2024/02/11 09:46:03;;;;;;;;;;;512.80;1510.40;;;;;;5006745;28;20290;-82
2024/02/11 09:48:30;;;;;;;;;;;512.90;1510.40;;;;;;5005648;28;20008;-82
2024/02/11 09:50:56;;;;;;;;;;;537.80;1510.40;;;;;;5003610;28;19913;-82
2024/02/11 09:53:22;;;;;;;;;;;537.70;1510.40;;;;;;5008114;28;19913;-77
2024/02/11 09:55:48;;;;;;;;;;;537.70;1510.40;;;;;;5011563;28;19913;-84
2024/02/11 09:58:13;;;;;;;;;;;537.70;1484.80;;;;;;5015077;28;20418;-80
2024/02/11 10:00:39;;;;;;;;;;;537.70;1484.80;;;;;;5008184;28;19967;-79
2024/02/11 10:03:07;;;;;;;;;;;538.00;1484.80;;;;;;5006317;28;19945;-83
2024/02/11 10:05:35;;;;;;;;;;;538.30;1459.20;;;;;;5010966;28;19916;-79
2024/02/11 10:08:09;;;;;;;;;;;538.50;1433.60;;;;;;5025205;28;19913;-79
2024/02/11 10:10:34;;;;;;;;;;;563.20;1433.60;;;;;;5014704;28;20257;-81
2024/02/11 10:13:02;;;;;;;;;;;563.30;1433.60;;;;;;5009736;28;19909;-81
2024/02/11 10:15:34;;;;;;;;;;;563.20;1433.60;;;;;;5012805;28;19913;-78
2024/02/11 10:18:02;;;;;;;;;;;563.30;1433.60;;;;;;5006561;28;20410;-80
2024/02/11 10:20:27;;;;;;;;;;;563.50;1433.60;;;;;;5027529;28;19927;-88
2024/02/11 10:22:53;;;;;;;;;;;563.50;1408.00;;;;;;5007225;28;19913;-84
2024/02/11 10:25:22;;;;;;;;;;;563.60;1408.00;;;;;;5007577;28;20004;-83
2024/02/11 10:27:48;;;;;;;;;;;563.60;1433.60;;;;;;5005806;28;19913;-82
2024/02/11 10:30:14;;;;;;;;;;;563.80;1408.00;;;;;;5023679;28;20244;-84
2024/02/11 10:32:40;;;;;;;;;;;563.80;1408.00;;;;;;5007357;28;20315;-82
2024/02/11 10:35:06;;;;;;;;;;;563.80;1382.40;;;;;;5012953;28;19992;-84
2024/02/11 10:37:36;;;;;;;;;;;564.00;1382.40;;;;;;5015603;28;19944;-81
2024/02/11 10:40:03;;;;;;;;;;;564.10;1382.40;;;;;;5023057;28;19921;-83
2024/02/11 10:42:29;;;;;;;;;;;588.90;1356.80;;;;;;5013985;28;20259;-82
2024/02/11 10:44:54;;;;;;;;;;;564.00;1356.80;;;;;;5018808;28;19916;-82
2024/02/11 10:47:20;;;;;;;;;;;564.10;1356.80;;;;;;5014169;28;19913;-83
2024/02/11 10:49:45;;;;;;;;;;;564.10;1356.80;;;;;;5010334;28;20393;-82
2024/02/11 10:52:13;;;;;;;;;;;564.00;1356.80;;;;;;5029021;28;19913;-83
2024/02/11 10:54:41;;;;;;;;;;;563.90;1356.80;;;;;;5013179;28;19913;-83
2024/02/11 10:57:12;;;;;;;;;;;563.90;1356.80;;;;;;5022300;28;19984;-82
2024/02/11 10:59:42;;;;;;;;;;;564.00;1356.80;;;;;;5027236;28;20371;-82
2024/02/11 11:02:09;;;;;;;;;;;564.00;1356.80;;;;;;5002611;28;19999;-83
2024/02/11 11:04:37;;;;;;;;;;;564.10;1331.20;;;;;;5024752;28;19994;-84
2024/02/11 11:07:03;;;;;;;;;;;564.10;1356.80;;;;;;5015506;28;19956;-80
2024/02/11 11:09:29;;;;;;;;;;;564.00;1356.80;;;;;;5025947;28;19909;-80
2024/02/11 11:12:04;;;;;;;;;;;588.90;1356.80;;;;;;5032428;28;19932;-80
2024/02/11 11:14:34;;;;;;;;;;;563.40;1356.80;;;;;;5028866;28;19963;-79
2024/02/11 11:17:03;;;;;;;;;;;538.40;1382.40;;;;;;5007500;28;20442;-78
2024/02/11 11:19:32;;;;;;;;;;;538.40;1382.40;;;;;;5013611;28;19921;-80
2024/02/11 11:21:58;;;;;;;;;;;538.20;1408.00;;;;;;5012923;28;20379;-78
2024/02/11 11:24:24;;;;;;;;;;;563.40;1382.40;;;;;;5023268;28;19915;-78
2024/02/11 11:26:50;;;;;;;;;;;563.40;1356.80;;;;;;5023270;28;19916;-82
2024/02/11 11:29:17;;;;;;;;;;;563.20;1382.40;;;;;;5016697;28;20273;-82
2024/02/11 11:31:45;;;;;;;;;;;538.30;1382.40;;;;;;5009179;28;19912;-83
2024/02/11 11:34:11;;;;;;;;;;;538.40;1382.40;;;;;;5016122;28;19905;-81
2024/02/11 11:36:37;;;;;;;;;;;563.40;1408.00;;;;;;5011243;28;19919;-85
2024/02/11 11:39:13;;;;;;;;;;;563.30;1382.40;;;;;;5004847;28;19925;-82
2024/02/11 11:41:39;;;;;;;;;;;563.20;1382.40;;;;;;5031618;28;20429;-80
2024/02/11 11:44:05;;;;;;;;;;;538.10;1382.40;;;;;;5025707;28;20004;-80
2024/02/11 11:46:31;;;;;;;;;;;537.90;1408.00;;;;;;5012793;28;20040;-81
2024/02/11 11:48:57;;;;;;;;;;;537.70;1408.00;;;;;;5010928;28;19916;-81
2024/02/11 11:51:23;;;;;;;;;;;537.60;1433.60;;;;;;5027645;28;19913;-82
2024/02/11 11:53:49;;;;;;;;;;;512.90;1408.00;;;;;;5010041;28;20369;-85
2024/02/11 11:56:16;;;;;;;;;;;512.90;1408.00;;;;;;5027004;28;19909;-80
2024/02/11 11:58:43;;;;;;;;;;;512.70;1433.60;;;;;;5023095;28;20410;-82
2024/02/11 12:01:09;;;;;;;;;;;512.70;1433.60;;;;;;5016302;28;19971;-81
2024/02/11 12:03:36;;;;;;;;;;;512.40;1433.60;;;;;;5017232;28;19909;-82
2024/02/11 12:06:02;;;;;;;;;;;512.40;1459.20;;;;;;5014921;28;19945;-82
2024/02/11 12:08:28;;;;;;;;;;;512.30;1459.20;;;;;;5012062;28;19940;-81
2024/02/11 12:10:58;;;;;;;;;;;512.30;1459.20;;;;;;5014625;28;20361;-80
2024/02/11 12:13:24;;;;;;;;;;;512.10;1484.80;;;;;;5006433;28;19909;-80
2024/02/11 12:15:50;;;;;;;;;;;512.00;1484.80;;;;;;5011410;28;19937;-80
2024/02/11 12:18:19;;;;;;;;;;;512.00;1510.40;;;;;;5005720;28;19912;-80
2024/02/11 12:20:47;;;;;;;;;;;512.00;1510.40;;;;;;5013537;28;20274;-82
2024/02/11 12:23:14;;;;;;;;;;;487.30;1510.40;;;;;;5011361;28;20422;-82
2024/02/11 12:25:40;;;;;;;;;;;487.30;1510.40;;;;;;5022804;28;19913;-80
2024/02/11 12:28:06;;;;;;;;;;;487.30;1510.40;;;;;;4992745;28;19921;-80
2024/02/11 12:30:33;;;;;;;;;;;487.30;1536.00;;;;;;5003315;28;19909;-79
2024/02/11 12:32:59;;;;;;;;;;;487.30;1561.60;;;;;;5010835;28;19948;-80
2024/02/11 12:35:29;;;;;;;;;;;486.50;1561.60;;;;;;5008857;28;19909;-82
2024/02/11 12:37:55;;;;;;;;;;;487.30;1561.60;;;;;;5007780;28;19916;-80
2024/02/11 12:40:23;;;;;;;;;;;487.20;1561.60;;;;;;5021860;28;19923;-82
2024/02/11 12:42:55;;;;;;;;;;;487.30;1561.60;;;;;;5021030;28;19956;-81
2024/02/11 12:45:21;;;;;;;;;;;487.30;1561.60;;;;;;5001332;28;20286;-81
2024/02/11 12:47:47;;;;;;;;;;;487.30;1561.60;;;;;;5015087;28;19959;-81
2024/02/11 12:50:13;;;;;;;;;;;487.30;1561.60;;;;;;5014249;28;19909;-81
2024/02/11 12:52:39;;;;;;;;;;;487.30;1561.60;;;;;;5023564;28;19914;-81
2024/02/11 12:55:08;;;;;;;;;;;487.20;1561.60;;;;;;5009969;28;19916;-82
2024/02/11 12:57:34;;;;;;;;;;;487.20;1587.20;;;;;;5009066;28;19983;-78
2024/02/11 12:59:59;;;;;;;;;;;487.10;1587.20;;;;;;5023590;28;19980;-78
2024/02/11 13:02:25;;;;;;;;;;;487.00;1612.80;;;;;;5023900;28;19913;-80
2024/02/11 13:04:51;;;;;;;;;;;486.90;1638.40;;;;;;5028755;28;19916;-77
2024/02/11 13:07:17;;;;;;;;;;;486.90;1638.40;;;;;;5006671;28;19909;-76
2024/02/11 13:09:42;;;;;;;;;;;486.90;1664.00;;;;;;5024577;28;20059;-78
2024/02/11 13:12:08;;;;;;;;;;;486.80;1689.60;;;;;;5008353;28;19966;-78
2024/02/11 13:14:34;;;;;;;;;;;486.70;1689.60;;;;;;5025781;28;19917;-78
2024/02/11 13:16:59;;;;;;;;;;;486.70;1689.60;;;;;;5009734;28;19909;-77
2024/02/11 13:19:25;;;;;;;;;;;486.80;1689.60;;;;;;5004732;28;19927;-80
2024/02/11 13:21:51;;;;;;;;;;;486.80;1689.60;;;;;;5017883;28;20413;-77
2024/02/11 13:24:17;;;;;;;;;;;486.80;1689.60;;;;;;5026095;28;19952;-77
2024/02/11 13:26:42;;;;;;;;;;;486.90;1715.20;;;;;;5022194;28;19967;-80
2024/02/11 13:29:11;;;;;;;;;;;486.90;1715.20;;;;;;5020081;28;20370;-78
2024/02/11 13:31:39;;;;;;;;;;;486.90;1715.20;;;;;;5029286;28;20000;-82
2024/02/11 13:34:05;;;;;;;;;;;486.90;1715.20;;;;;;5004048;28;19914;-76
2024/02/11 13:36:31;;;;;;;;;;;486.80;1740.80;;;;;;5006667;28;19956;-78
2024/02/11 13:38:56;;;;;;;;;;;486.80;1715.20;;;;;;5008963;28;19970;-77